Goodfellow Terrace, Missouri
Current Conditions -  °F | °C
As of 9:51 PM on Friday 28 Nov 2014 (Local Time) from KSTL Reporting Station
Broken Clouds Broken Clouds  
Wind Chill: 40°   Ceiling: 25000
Heat Index: 45°   Visibility: 10mi
Dew Point: 34°   Wind: 9mph
Humidity: 65%   Direction: 170°S
Pressure: 29.91"   Gusts: NA
Location:  38.694°N, 90.256°W
Report Text: KSTL 290351Z 17008KT 10SM FEW150 BKN250 07/01 A2991 RMK AO2 SLP133 T00720011
Loading
Personal Weather Stations






























Interactive Weather Map New forecast layout! Learn more

10-Day Weather Forecast

Advertisements
Track Severe Weather on mobile